ADDS TAF Board (Experimental) INFO

IDs: Format: Expanded Condensed

Updated at: 0934 UTC 22 Oct 2014

KPHX - Phoenix/Sky Harbor, AZ, US

Issued at 0901 UTC 22 Oct 2014
Time0851Z22/10Z22/11Z22/12Z22/13Z22/14Z22/15Z22/16Z22/17Z22/18Z22/19Z22/20Z22/21Z22/22Z
TypeOBSPRVLPRVLPRVLPRVLPRVLPRVLPRVLPRVLPRVLPRVLPRVLPRVLPRVL
VIS10>6>6>6>6>6>6>6>6>6>6>6>6>6
CIG----------------------------
CoverCLRSKCSKCSKCSKCSKCSKCSKCSKCSKCFEWFEWFEWFEW
FltCat--VFRVFRVFRVFRVFRVFRVFRVFRVFRVFRVFRVFRVFR
WX----------------------------
WDir130100100100100100100100100100VRBVRBVRBVRB
WSpd35555555553333
WGst----------------------------
R07/25
XWnd-2-1-1-1-1-1-1-1-1-1VRBVRBVRBVRB
HWnd2555555555VRBVRBVRBVRB
R08/26
XWnd-2-1-1-1-1-1-1-1-1-1VRBVRBVRBVRB
HWnd2555555555VRBVRBVRBVRB
Raw TAF
KPHX 220901Z 2209/2306 10005KT P6SM SKC
  FM221900 VRB03KT P6SM FEW250
  FM222300 27005KT P6SM FEW250


Raw METAR
KPHX 220851Z 13003KT 10SM CLR 22/11 A2985 RMK AO2 SLP091 T02220111 51006

TAF Board Legend

Hazard VFR MVFR IFR LIFR
Visibility (sm) >5 3≤X≤5 1≤X<3 <1
Ceiling (100 ft) >30 10≤X≤30 5≤X<10 <5
Wind Speed (kt) <10 10≤X<20 20≤X<30 ≥30
Wind Gust (kt) <15 15≤X<25 25≤X<35 ≥35
Weather No Wx Reported VCTS,-TS,-FZRA TS,FZRA +TS,+FZRA


Page loaded:  09:34 UTC  |   02:34 AM Pacific  |   03:34 AM Mountain  |   04:34 AM Central  |   05:34 AM Eastern

 

ADVISORIES

FORECASTS

FORECASTS

OBSERVATIONS

USER TOOLS

ABOUT US